This is the latest recevied weather packets stored in our database for station/object KD2DXJ. If no packets are shown the sender has not sent any weather packets the latest 10 day(s).
| Time | Temp. | Humidity | Pressure | Rain* | Wind** | Luminosity | Snow |
|---|---|---|---|---|---|---|---|
| 1778311506 | 1.67° C | 78% | 1009.2 hPa | 0 mm | - | 0 W/m² | - |
| 1778311203 | 2.22° C | 77% | 1009.3 hPa | 0 mm | - | 0 W/m² | - |
| 1778310900 | 2.78° C | 76% | 1009.1 hPa | 0 mm | - | 0 W/m² | - |
| 1778310598 | 2.78° C | 75% | 1009.2 hPa | 0 mm | - | 0 W/m² | - |
| 1778310294 | 2.22° C | 77% | 1009.1 hPa | 0 mm | - | 0 W/m² | - |
| 1778309990 | 2.22° C | 78% | 1009.2 hPa | 0 mm | - | 0 W/m² | - |
| 1778309686 | 2.78° C | 78% | 1009.3 hPa | 0 mm | - | 0 W/m² | - |
| 1778309382 | 2.22° C | 78% | 1009 hPa | 0 mm | - | 0 W/m² | - |
| 1778309080 | 1.11° C | 82% | 1009.2 hPa | 0 mm | - | 0 W/m² | - |
| 1778308778 | 0.56° C | 84% | 1009.2 hPa | 0 mm | - | 0 W/m² | - |
| 1778308473 | 0.56° C | 86% | 1009.4 hPa | 0 mm | - | 0 W/m² | - |
| 1778308170 | 0.56° C | 83% | 1009.5 hPa | 0 mm | - | 0 W/m² | - |
| 1778307868 | 0.56° C | 84% | 1009.4 hPa | 0 mm | - | 0 W/m² | - |
| 1778307565 | 0.56° C | 85% | 1009.5 hPa | 0 mm | - | 0 W/m² | - |
| 1778307263 | 0° C | 86% | 1009.5 hPa | 0 mm | - | 0 W/m² | - |
| 1778306959 | 0.56° C | 86% | 1009.7 hPa | 0 mm | - | 0 W/m² | - |
| 1778306657 | 1.11° C | 83% | 1009.8 hPa | 0 mm | - | 0 W/m² | - |
| 1778306351 | 1.11° C | 79% | 1009.8 hPa | 0 mm | - | 0 W/m² | - |
| 1778306047 | 1.11° C | 80% | 1009.7 hPa | 0 mm | - | 0 W/m² | - |
| 1778305744 | 0.56° C | 82% | 1009.9 hPa | 0 mm | - | 0 W/m² | - |
| 1778305441 | 0.56° C | 82% | 1009.8 hPa | 0 mm | - | 0 W/m² | - |
| 1778305139 | 0.56° C | 83% | 1009.9 hPa | 0 mm | - | 0 W/m² | - |
| 1778304836 | 0.56° C | 83% | 1009.8 hPa | 0 mm | - | 0 W/m² | - |
| 1778304535 | 0.56° C | 84% | 1009.9 hPa | 0 mm | - | 0 W/m² | - |
| 1778304231 | 1.11° C | 84% | 1009.8 hPa | 0 mm | - | 0 W/m² | - |
* Rain latest hour (hover to see other rain measurements)
** Current wind speed in m/s (hover to see current wind gust speed)